createdAt,value
2022-12-27T00:00:10.815Z,15.80
2022-12-27T00:05:32.036Z,17.20
2022-12-27T00:08:00.928Z,16.30
2022-12-27T00:10:29.725Z,15.70
2022-12-27T00:12:58.512Z,16.30
2022-12-27T00:15:27.474Z,17.00
2022-12-27T00:17:56.563Z,17.60
2022-12-27T00:20:25.327Z,16.10
2022-12-27T00:22:54.171Z,15.60
2022-12-27T00:25:23.167Z,16.90
2022-12-27T00:27:52.776Z,15.60
2022-12-27T00:30:22.178Z,16.00
2022-12-27T00:32:50.969Z,15.90
2022-12-27T00:35:19.551Z,16.00
2022-12-27T00:37:48.138Z,16.40
2022-12-27T00:40:17.041Z,18.30
2022-12-27T00:42:45.843Z,15.70
2022-12-27T00:45:14.299Z,15.30
2022-12-27T00:47:42.983Z,15.10
2022-12-27T00:50:12.089Z,16.40
2022-12-27T00:52:40.518Z,14.50
2022-12-27T00:55:10.450Z,14.90
2022-12-27T00:57:39.373Z,15.60
2022-12-27T01:00:11.187Z,16.40
2022-12-27T01:02:40.125Z,14.60
2022-12-27T01:05:10.240Z,16.60
2022-12-27T01:07:39.164Z,15.40
2022-12-27T01:10:08.641Z,15.30
2022-12-27T01:12:37.632Z,15.30
2022-12-27T01:15:08.032Z,15.10
2022-12-27T01:17:36.917Z,16.60
2022-12-27T01:20:06.364Z,17.90
2022-12-27T01:22:34.834Z,16.10
2022-12-27T01:25:04.150Z,15.00
2022-12-27T01:27:32.721Z,16.30
2022-12-27T01:30:01.311Z,16.60
2022-12-27T01:32:32.548Z,16.50
2022-12-27T01:35:02.129Z,14.50
2022-12-27T01:37:30.842Z,14.80
2022-12-27T01:39:59.428Z,14.60
2022-12-27T01:42:47.165Z,14.30
2022-12-27T01:45:18.465Z,14.90
2022-12-27T01:47:47.194Z,15.30
2022-12-27T01:50:32.145Z,14.90
2022-12-27T01:53:17.721Z,15.60
2022-12-27T01:56:01.085Z,14.90
2022-12-27T01:58:37.134Z,13.00
2022-12-27T02:01:10.139Z,14.30
2022-12-27T02:03:43.420Z,15.20
2022-12-27T02:06:14.723Z,14.40
2022-12-27T02:09:11.819Z,15.00
2022-12-27T02:11:51.599Z,15.60
2022-12-27T02:14:27.863Z,15.90
2022-12-27T02:16:59.917Z,15.70
2022-12-27T02:19:41.091Z,15.40
2022-12-27T02:23:22.893Z,14.70
2022-12-27T02:25:51.453Z,14.30
2022-12-27T02:28:58.443Z,17.90
2022-12-27T02:31:44.842Z,15.40
2022-12-27T02:34:23.331Z,15.50
2022-12-27T02:36:54.338Z,16.70
2022-12-27T02:39:25.016Z,16.00
2022-12-27T02:42:13.685Z,14.90
2022-12-27T02:45:01.537Z,15.00
2022-12-27T02:47:50.184Z,16.70
2022-12-27T02:50:38.215Z,15.60
2022-12-27T02:53:21.137Z,15.30
2022-12-27T02:56:45.629Z,14.70
2022-12-27T02:59:17.184Z,14.80
2022-12-27T03:02:23.808Z,14.50
2022-12-27T03:05:14.260Z,15.10
2022-12-27T03:08:00.965Z,14.80
2022-12-27T03:11:16.860Z,14.80
2022-12-27T03:14:31.115Z,16.80
2022-12-27T03:17:06.624Z,14.10
2022-12-27T03:20:09.147Z,16.20
2022-12-27T03:25:28.817Z,15.50
2022-12-27T03:28:24.146Z,13.50
2022-12-27T03:31:19.289Z,14.90
2022-12-27T03:33:50.768Z,13.30
2022-12-27T03:36:42.225Z,13.90
2022-12-27T03:39:18.361Z,14.60
2022-12-27T03:42:12.782Z,16.30
2022-12-27T03:44:41.565Z,14.20
2022-12-27T03:47:35.665Z,17.20
2022-12-27T03:50:16.573Z,17.20
2022-12-27T03:52:56.086Z,17.90
2022-12-27T03:55:29.958Z,16.50
2022-12-27T03:58:02.161Z,16.60
2022-12-27T04:00:31.232Z,19.80
2022-12-27T04:02:59.857Z,18.40
2022-12-27T04:05:28.705Z,15.80
2022-12-27T04:08:16.542Z,14.60
2022-12-27T04:11:05.327Z,16.50
2022-12-27T04:13:52.726Z,18.00
2022-12-27T04:16:40.150Z,14.60
2022-12-27T04:19:27.374Z,16.00
2022-12-27T04:22:14.694Z,18.10
2022-12-27T04:25:02.026Z,15.70
2022-12-27T04:27:49.038Z,17.20
2022-12-27T04:30:37.178Z,14.90
2022-12-27T04:33:24.813Z,14.00
2022-12-27T04:35:53.491Z,15.20
2022-12-27T04:38:22.401Z,15.40
2022-12-27T04:41:10.529Z,16.80
2022-12-27T04:43:57.746Z,15.40
2022-12-27T04:46:45.837Z,17.90
2022-12-27T04:49:40.994Z,16.70
2022-12-27T04:52:41.328Z,17.60
2022-12-27T04:55:24.336Z,18.10
2022-12-27T04:57:53.416Z,15.70
2022-12-27T05:00:43.121Z,17.50
2022-12-27T05:03:15.893Z,18.20
2022-12-27T05:05:46.689Z,17.80
2022-12-27T05:08:37.451Z,16.90
2022-12-27T05:11:26.199Z,17.20
2022-12-27T05:14:00.837Z,17.80
2022-12-27T05:16:34.574Z,17.40
2022-12-27T05:19:04.908Z,18.10
2022-12-27T05:22:06.013Z,22.20
2022-12-27T05:24:53.711Z,23.90
2022-12-27T05:27:22.634Z,20.60
2022-12-27T05:29:51.412Z,21.00
2022-12-27T05:32:20.103Z,23.30
2022-12-27T05:34:48.893Z,21.30
2022-12-27T05:37:17.629Z,20.40
2022-12-27T05:39:46.162Z,22.50
2022-12-27T05:42:14.845Z,17.30
2022-12-27T05:44:43.486Z,18.40
2022-12-27T05:47:12.122Z,18.20
2022-12-27T05:49:41.417Z,19.20
2022-12-27T05:52:10.103Z,19.60
2022-12-27T05:54:39.102Z,18.80
2022-12-27T05:57:07.679Z,19.60
2022-12-27T05:59:36.171Z,20.90
2022-12-27T06:02:05.401Z,21.10
2022-12-27T06:04:34.355Z,18.20
2022-12-27T06:07:02.948Z,16.80
2022-12-27T06:09:32.102Z,19.90
2022-12-27T06:12:01.029Z,18.90
2022-12-27T06:14:29.719Z,20.30
2022-12-27T06:16:58.384Z,20.80
2022-12-27T06:19:27.197Z,21.50
2022-12-27T06:21:55.775Z,21.60
2022-12-27T06:24:24.635Z,20.50
2022-12-27T06:26:53.451Z,21.50
2022-12-27T06:29:22.036Z,20.40
2022-12-27T06:31:50.560Z,19.30
2022-12-27T06:34:19.311Z,22.30
2022-12-27T06:36:51.015Z,23.20
2022-12-27T06:39:20.450Z,22.20
2022-12-27T06:41:50.793Z,17.40
2022-12-27T06:44:19.176Z,23.10
2022-12-27T06:46:47.971Z,19.70
2022-12-27T06:49:16.552Z,21.10
2022-12-27T06:51:45.235Z,20.20
2022-12-27T06:54:14.138Z,19.70
2022-12-27T06:56:43.326Z,16.40
2022-12-27T06:59:11.909Z,19.20
2022-12-27T07:01:42.296Z,21.40
2022-12-27T07:04:11.225Z,20.30
2022-12-27T07:06:40.020Z,21.60
2022-12-27T07:09:09.212Z,20.20
2022-12-27T07:11:38.309Z,23.10
2022-12-27T07:14:09.556Z,18.30
2022-12-27T07:16:38.652Z,19.30
2022-12-27T07:19:10.322Z,20.00
2022-12-27T07:21:38.930Z,20.50
2022-12-27T07:24:08.192Z,21.80
2022-12-27T07:26:36.982Z,19.80
2022-12-27T07:29:05.876Z,21.60
2022-12-27T07:31:34.612Z,21.50
2022-12-27T07:34:04.682Z,16.70
2022-12-27T07:36:39.587Z,18.10
2022-12-27T07:39:09.470Z,19.40
2022-12-27T07:41:38.423Z,20.00
2022-12-27T07:44:10.241Z,21.80
2022-12-27T07:46:40.399Z,20.60
2022-12-27T07:49:17.218Z,21.00
2022-12-27T07:51:46.749Z,20.50
2022-12-27T07:54:15.366Z,20.80
2022-12-27T07:56:44.060Z,21.40
2022-12-27T07:59:14.353Z,18.00
2022-12-27T08:02:02.935Z,22.00
2022-12-27T08:04:34.001Z,19.90
2022-12-27T08:07:15.166Z,21.00
2022-12-27T08:09:46.046Z,19.60
2022-12-27T08:12:15.157Z,19.70
2022-12-27T08:14:43.693Z,21.90
2022-12-27T08:17:16.269Z,20.70
2022-12-27T08:19:45.253Z,21.60
2022-12-27T08:22:14.049Z,22.10
2022-12-27T08:24:44.133Z,22.30
2022-12-27T08:27:13.046Z,21.20
2022-12-27T08:29:41.833Z,21.50
2022-12-27T08:32:10.313Z,18.00
2022-12-27T08:34:39.418Z,22.70
2022-12-27T08:37:09.122Z,21.60
2022-12-27T08:39:37.504Z,20.80
2022-12-27T08:42:06.723Z,21.70
2022-12-27T08:44:35.853Z,22.30
2022-12-27T08:47:04.890Z,22.70
2022-12-27T08:49:33.581Z,22.70
2022-12-27T08:52:02.471Z,21.50
2022-12-27T08:54:30.954Z,23.00
2022-12-27T08:56:59.744Z,23.80
2022-12-27T08:59:28.353Z,23.80
2022-12-27T09:01:57.173Z,22.50
2022-12-27T09:04:26.119Z,25.20
2022-12-27T09:06:54.895Z,25.80
2022-12-27T09:09:23.584Z,24.60
2022-12-27T09:11:52.169Z,23.70
2022-12-27T09:14:21.424Z,23.20
2022-12-27T09:16:51.286Z,23.90
2022-12-27T09:19:20.092Z,23.40
2022-12-27T09:21:48.555Z,20.40
2022-12-27T09:24:17.247Z,18.50
2022-12-27T09:26:46.131Z,23.60
2022-12-27T09:29:14.614Z,21.80
2022-12-27T09:31:43.202Z,24.80
2022-12-27T09:34:12.189Z,21.80
2022-12-27T09:36:41.090Z,26.50
2022-12-27T09:39:12.603Z,23.40
2022-12-27T09:44:58.436Z,21.80
2022-12-27T09:47:45.902Z,20.60
2022-12-27T09:50:24.911Z,22.20
2022-12-27T09:53:14.216Z,22.90
2022-12-27T09:55:49.005Z,23.90
2022-12-27T09:58:48.521Z,20.10
2022-12-27T10:01:23.215Z,19.00
2022-12-27T10:03:53.356Z,20.00
2022-12-27T10:06:45.198Z,20.30
2022-12-27T10:09:41.312Z,20.30
2022-12-27T10:12:15.640Z,21.50
2022-12-27T10:15:12.701Z,19.30
2022-12-27T10:18:16.299Z,20.50
2022-12-27T10:21:21.035Z,19.60
2022-12-27T10:23:56.343Z,22.40
2022-12-27T10:26:25.367Z,17.90
2022-12-27T10:42:37.980Z,18.20
2022-12-27T10:45:36.517Z,18.60
2022-12-27T10:48:36.389Z,17.40
2022-12-27T10:51:15.722Z,17.40
2022-12-27T10:53:45.841Z,16.70
2022-12-27T10:56:14.908Z,17.60
2022-12-27T10:58:58.447Z,16.20
2022-12-27T11:01:29.548Z,16.20
2022-12-27T11:04:20.656Z,17.60
2022-12-27T11:07:18.099Z,15.30
2022-12-27T11:09:51.132Z,17.00
2022-12-27T11:12:21.487Z,16.00
2022-12-27T11:15:15.276Z,15.80
2022-12-27T11:17:55.748Z,15.90
2022-12-27T11:20:32.986Z,17.10
2022-12-27T11:23:14.721Z,14.40
2022-12-27T11:26:04.019Z,14.60
2022-12-27T11:28:39.347Z,13.90
2022-12-27T11:31:10.443Z,14.20
2022-12-27T11:33:41.988Z,14.80
2022-12-27T11:38:42.601Z,14.60
2022-12-27T11:44:02.258Z,15.10
2022-12-27T11:47:07.662Z,14.50
2022-12-27T11:50:01.195Z,15.30
2022-12-27T11:52:32.139Z,15.70
2022-12-27T11:55:11.181Z,16.40
2022-12-27T11:58:13.337Z,15.20
2022-12-27T12:01:09.261Z,17.70
2022-12-27T12:03:39.874Z,16.60
2022-12-27T12:06:15.548Z,17.20
2022-12-27T12:09:07.895Z,17.00
2022-12-27T12:12:06.472Z,16.10
2022-12-27T12:15:25.700Z,14.70
2022-12-27T12:17:55.867Z,14.00
2022-12-27T12:20:28.753Z,13.80
2022-12-27T12:23:30.003Z,14.60
2022-12-27T12:26:08.632Z,15.80
2022-12-27T12:29:03.126Z,14.70
2022-12-27T12:31:46.768Z,14.90
2022-12-27T12:35:06.645Z,14.30
2022-12-27T12:38:15.266Z,13.10
2022-12-27T12:41:04.536Z,11.50
2022-12-27T12:44:05.070Z,11.70
2022-12-27T12:46:44.613Z,11.20
2022-12-27T12:49:42.995Z,11.20
2022-12-27T12:52:31.656Z,10.70
2022-12-27T12:55:33.412Z,10.20
2022-12-27T12:58:52.381Z,10.30
2022-12-27T13:01:39.160Z,11.10
2022-12-27T13:04:41.598Z,11.60
2022-12-27T13:07:37.808Z,11.20
2022-12-27T13:10:07.515Z,11.30
2022-12-27T13:12:57.345Z,11.40
2022-12-27T13:15:56.464Z,11.80
2022-12-27T13:18:39.220Z,12.40
2022-12-27T13:21:22.343Z,12.20
2022-12-27T13:23:59.424Z,11.90
2022-12-27T13:26:42.347Z,12.60
2022-12-27T13:29:27.624Z,12.00
2022-12-27T13:31:54.834Z,11.80
2022-12-27T13:34:31.069Z,12.60
2022-12-27T13:37:09.251Z,12.60
2022-12-27T13:40:04.366Z,12.30
2022-12-27T13:42:31.918Z,12.10
2022-12-27T13:45:19.364Z,12.20
2022-12-27T13:48:25.103Z,12.40
2022-12-27T13:51:14.686Z,13.40
2022-12-27T13:53:51.365Z,12.50
2022-12-27T13:56:54.100Z,12.50
2022-12-27T13:59:54.982Z,13.80
2022-12-27T14:02:45.556Z,14.50
2022-12-27T14:05:37.701Z,16.00
2022-12-27T14:08:34.781Z,17.20
2022-12-27T14:11:11.484Z,17.10
2022-12-27T14:13:43.352Z,18.00
2022-12-27T14:16:28.900Z,17.40
2022-12-27T14:19:44.485Z,17.40
2022-12-27T14:22:34.155Z,17.70
2022-12-27T14:25:07.146Z,18.30
2022-12-27T14:27:49.558Z,18.00
2022-12-27T14:30:25.550Z,16.50
2022-12-27T14:33:14.271Z,17.90
2022-12-27T14:36:20.443Z,17.40
2022-12-27T14:39:46.340Z,18.80
2022-12-27T14:42:35.431Z,17.20
2022-12-27T14:45:40.675Z,16.90
2022-12-27T14:48:20.529Z,16.20
2022-12-27T14:54:46.603Z,17.70
2022-12-27T14:57:38.104Z,16.10
2022-12-27T15:00:51.126Z,17.20
2022-12-27T15:03:35.843Z,17.70
2022-12-27T15:06:14.817Z,18.60
2022-12-27T15:09:25.700Z,18.20
2022-12-27T15:12:43.717Z,18.00
2022-12-27T15:15:46.756Z,19.70
2022-12-27T15:18:49.310Z,18.00
2022-12-27T15:21:33.679Z,17.50
2022-12-27T15:24:25.889Z,19.50
2022-12-27T15:27:17.851Z,18.70
2022-12-27T15:30:09.974Z,17.60
2022-12-27T15:32:53.392Z,17.40
2022-12-27T15:35:40.426Z,18.60
2022-12-27T15:38:11.362Z,18.30
2022-12-27T15:40:45.788Z,20.80
2022-12-27T15:43:21.231Z,18.90
2022-12-27T15:46:24.053Z,18.80
2022-12-27T15:49:13.184Z,20.20
2022-12-27T15:51:55.394Z,20.10
2022-12-27T15:54:53.336Z,20.50
2022-12-27T15:58:00.046Z,19.20
2022-12-27T16:00:33.617Z,19.60
2022-12-27T16:03:24.014Z,20.90
2022-12-27T16:05:53.338Z,19.50
2022-12-27T16:08:34.433Z,19.50
2022-12-27T16:11:04.595Z,20.00
2022-12-27T16:13:47.775Z,22.40
2022-12-27T16:16:28.168Z,23.20
2022-12-27T16:19:19.648Z,22.00
2022-12-27T16:21:47.317Z,21.30
2022-12-27T16:24:24.950Z,23.80
2022-12-27T16:27:01.374Z,23.60
2022-12-27T16:29:33.252Z,23.60
2022-12-27T16:32:23.672Z,24.40
2022-12-27T16:34:57.434Z,23.60
2022-12-27T16:37:30.032Z,22.80
2022-12-27T16:40:09.872Z,22.10
2022-12-27T16:43:10.908Z,22.00
2022-12-27T16:45:38.899Z,22.10
2022-12-27T16:48:30.919Z,22.80
2022-12-27T16:51:20.287Z,22.90
2022-12-27T16:54:26.283Z,25.60
2022-12-27T16:57:39.995Z,25.90
2022-12-27T17:00:13.805Z,25.20
2022-12-27T17:02:45.577Z,25.90
2022-12-27T17:05:32.102Z,28.70
2022-12-27T17:08:00.236Z,25.70
2022-12-27T17:10:27.549Z,26.70
2022-12-27T17:13:19.628Z,28.70
2022-12-27T17:15:57.731Z,26.80
2022-12-27T17:18:35.430Z,27.50
2022-12-27T17:21:30.437Z,26.80
2022-12-27T17:24:07.612Z,25.60
2022-12-27T17:26:49.312Z,25.90
2022-12-27T17:29:49.234Z,24.60
2022-12-27T17:32:41.267Z,24.80
2022-12-27T17:35:31.674Z,23.40
2022-12-27T17:38:18.681Z,24.10
2022-12-27T17:41:15.182Z,23.50
2022-12-27T17:44:01.413Z,21.00
2022-12-27T17:46:48.433Z,22.60
2022-12-27T17:49:16.939Z,21.70
2022-12-27T17:52:09.153Z,19.70
2022-12-27T17:54:55.451Z,19.70
2022-12-27T17:57:41.447Z,18.90
2022-12-27T18:00:25.798Z,19.20
2022-12-27T18:02:56.175Z,17.00
2022-12-27T18:05:29.932Z,17.90
2022-12-27T18:08:18.419Z,18.40
2022-12-27T18:10:45.840Z,19.50
2022-12-27T18:13:19.437Z,18.70
2022-12-27T18:15:49.462Z,18.20
2022-12-27T18:18:32.684Z,19.20
2022-12-27T18:21:04.076Z,17.60
2022-12-27T18:23:52.276Z,18.50
2022-12-27T18:26:36.326Z,19.50
2022-12-27T18:29:04.822Z,19.90
2022-12-27T18:31:39.931Z,18.30
2022-12-27T18:34:22.785Z,17.50
2022-12-27T18:37:00.471Z,18.30
2022-12-27T18:39:34.809Z,18.80
2022-12-27T18:42:25.079Z,18.90
2022-12-27T18:45:01.550Z,17.90
2022-12-27T18:47:29.003Z,17.60
2022-12-27T18:50:00.100Z,17.50
2022-12-27T18:52:34.406Z,17.30
2022-12-27T18:55:20.410Z,19.40
2022-12-27T18:57:48.122Z,19.10
2022-12-27T19:00:21.379Z,18.50
2022-12-27T19:02:50.206Z,19.20
2022-12-27T19:05:27.187Z,17.20
2022-12-27T19:08:08.574Z,18.30
2022-12-27T19:10:36.960Z,18.90
2022-12-27T19:13:04.728Z,19.20
2022-12-27T19:15:44.336Z,18.30
2022-12-27T19:18:28.651Z,18.00
2022-12-27T19:21:04.125Z,19.70
2022-12-27T19:23:35.629Z,19.20
2022-12-27T19:26:21.911Z,19.50
2022-12-27T19:29:07.664Z,19.10
2022-12-27T19:31:43.210Z,18.40
2022-12-27T19:34:16.952Z,18.30
2022-12-27T19:36:46.190Z,18.30
2022-12-27T19:39:21.396Z,19.10
2022-12-27T19:41:49.453Z,18.10
2022-12-27T19:44:17.634Z,19.10
2022-12-27T19:46:45.299Z,19.60
2022-12-27T19:52:00.385Z,17.90
2022-12-27T19:54:27.539Z,19.20
2022-12-27T19:56:55.817Z,18.50
2022-12-27T19:59:23.895Z,19.00
2022-12-27T20:01:51.254Z,19.60
2022-12-27T20:04:19.208Z,18.10
2022-12-27T20:06:48.687Z,16.90
2022-12-27T20:09:18.367Z,15.90
2022-12-27T20:11:46.189Z,16.60
2022-12-27T20:14:14.273Z,17.40
2022-12-27T20:16:41.708Z,21.30
2022-12-27T20:19:15.274Z,21.30
2022-12-27T20:21:43.410Z,19.90
2022-12-27T20:24:12.219Z,21.60
2022-12-27T20:26:40.478Z,20.20
2022-12-27T20:29:08.027Z,22.00
2022-12-27T20:31:40.655Z,21.10
2022-12-27T20:34:12.837Z,21.40
2022-12-27T20:36:41.607Z,21.70
2022-12-27T20:39:09.125Z,21.30
2022-12-27T20:41:38.095Z,23.60
2022-12-27T20:44:05.992Z,22.80
2022-12-27T20:46:33.217Z,24.40
2022-12-27T20:49:00.698Z,23.70
2022-12-27T20:51:31.207Z,22.70
2022-12-27T20:53:59.933Z,21.40
2022-12-27T20:56:27.674Z,25.20
2022-12-27T20:58:55.147Z,24.70
2022-12-27T21:01:25.432Z,19.40
2022-12-27T21:03:56.767Z,19.70
2022-12-27T21:06:27.197Z,20.40
2022-12-27T21:08:57.541Z,19.70
2022-12-27T21:11:31.806Z,21.10
2022-12-27T21:14:01.403Z,22.20
2022-12-27T21:16:31.708Z,21.40
2022-12-27T21:19:02.866Z,24.30
2022-12-27T21:21:32.970Z,20.70
2022-12-27T21:24:00.739Z,19.20
2022-12-27T21:26:31.195Z,18.00
2022-12-27T21:28:59.952Z,17.60
2022-12-27T21:31:27.466Z,15.30
2022-12-27T21:33:55.096Z,14.30
2022-12-27T21:36:24.520Z,13.20
2022-12-27T21:38:52.966Z,11.70
2022-12-27T21:41:23.259Z,11.80
2022-12-27T21:43:51.767Z,11.20
2022-12-27T21:46:21.638Z,12.30
2022-12-27T21:48:55.910Z,14.70
2022-12-27T21:51:24.354Z,16.10
2022-12-27T21:53:52.319Z,17.60
2022-12-27T21:56:21.345Z,15.10
2022-12-27T21:58:49.011Z,14.70
2022-12-27T22:01:19.248Z,11.40
2022-12-27T22:03:48.731Z,9.50
2022-12-27T22:06:17.560Z,8.10
2022-12-27T22:08:47.232Z,7.40
2022-12-27T22:11:15.205Z,7.90
2022-12-27T22:13:43.186Z,7.40
2022-12-27T22:16:17.390Z,6.40
2022-12-27T22:18:45.485Z,6.00
2022-12-27T22:21:18.649Z,5.50
2022-12-27T22:23:48.290Z,5.10
2022-12-27T22:26:18.187Z,5.20
2022-12-27T22:28:46.144Z,6.00
2022-12-27T22:31:21.437Z,7.20
2022-12-27T22:33:50.318Z,7.20
2022-12-27T22:36:20.508Z,6.20
2022-12-27T22:38:53.117Z,6.90
2022-12-27T22:41:25.402Z,7.00
2022-12-27T22:43:58.135Z,5.70
2022-12-27T22:46:27.427Z,4.60
2022-12-27T22:48:57.588Z,4.10
2022-12-27T22:51:27.641Z,4.20
2022-12-27T22:53:56.646Z,5.40
2022-12-27T22:56:32.435Z,7.70
2022-12-27T22:59:00.592Z,4.40
2022-12-27T23:01:31.011Z,3.90
2022-12-27T23:04:00.424Z,3.30
2022-12-27T23:06:29.113Z,3.90
2022-12-27T23:08:56.656Z,3.70
2022-12-27T23:11:36.543Z,3.80
2022-12-27T23:14:06.743Z,3.90
2022-12-27T23:16:39.126Z,3.90
2022-12-27T23:19:07.258Z,3.70
2022-12-27T23:21:34.540Z,2.80
2022-12-27T23:24:01.685Z,3.10
2022-12-27T23:26:29.248Z,2.80
2022-12-27T23:28:56.710Z,3.20
2022-12-27T23:31:25.008Z,3.10
2022-12-27T23:33:52.852Z,2.90
2022-12-27T23:36:21.236Z,3.20
2022-12-27T23:38:49.618Z,2.60
2022-12-27T23:41:21.387Z,3.10
2022-12-27T23:43:55.026Z,2.90
2022-12-27T23:46:27.737Z,3.20
2022-12-27T23:48:56.871Z,3.30
2022-12-27T23:51:24.818Z,2.90
2022-12-27T23:53:52.270Z,3.00
2022-12-27T23:56:28.328Z,3.10
2022-12-27T23:58:57.431Z,3.10
